CheckWX is a tool to help pilots better visualize weather data.  It is not intended as a substitute for an official pre-flight weather briefing.

03:56:46 UTC

DNAA METAR
Nnamdi Azikiwe International Airport
Abuja, Nigeria
Current

3 hours ago

DNAA 210100Z 07007KT 5000 HZ NSC 26/09 Q1011 NOSIG
Observed
Feb-21 @ 01:00 UTC
Wind
  • 070° at 7 KTS
Visibility
5,000 meters
Flight Rules
MVFR
Conditions
Haze
Cloud Levels
  • Clear skies
Temperature
26°C / 79°F
Dewpoint
C / 48°F
Humidity
34%
Altimeter
29.85" Hg
Pressure
1010.92 hPa
Previous

6 hours ago

DNAA 202200Z 06006KT 5000 HZ NSC 28/09 Q1011 NOSIG
Observed
Feb-20 @ 22:00 UTC
Wind
  • 060° at 6 KTS
Visibility
5,000 meters
Flight Rules
MVFR
Conditions
Haze
Cloud Levels
  • Clear skies
Temperature
28°C / 82°F
Dewpoint
C / 48°F
Humidity
30%
Altimeter
29.85" Hg
Pressure
1010.92 hPa
Previous

8 hours ago

DNAA 202000Z 05007KT 5000 HZ NSC 31/10 Q1010 NOSIG
Observed
Feb-20 @ 20:00 UTC
Wind
  • 050° at 7 KTS
Visibility
5,000 meters
Flight Rules
MVFR
Conditions
Haze
Cloud Levels
  • Clear skies
Temperature
31°C / 88°F
Dewpoint
10°C / 50°F
Humidity
27%
Altimeter
29.82" Hg
Pressure
1009.92 hPa